Time;durP1;ratioP1;P1;durP2;ratioP2;P2;SDS_P1;SDS_P2;PMS_P1;PMS_P2;Temp;Humidity;BMP_temperature;BMP_pressure;BME280_temperature;BME280_humidity;BME280_pressure;Samples;Min_cycle;Max_cycle;Signal;HPM_P1;HPM_P2
2023/12/02 00:00:14;;;;;;;15.13;7.55;;;;;;;-1.88;81.76;99352.22;4911846;29;20066;-78
2023/12/02 00:02:41;;;;;;;16.17;7.40;;;;;;;-1.89;81.80;99359.91;4930069;29;20515;-80
2023/12/02 00:05:08;;;;;;;15.05;7.80;;;;;;;-1.88;81.85;99352.22;4893906;29;20039;-80
2023/12/02 00:07:35;;;;;;;13.82;6.68;;;;;;;-1.90;82.08;99364.16;4913634;29;20056;-80
2023/12/02 00:10:02;;;;;;;14.20;6.72;;;;;;;-1.92;81.71;99361.56;4918580;29;20048;-80
2023/12/02 00:12:29;;;;;;;13.38;6.53;;;;;;;-1.90;82.00;99359.03;4915406;29;20075;-79
2023/12/02 00:14:56;;;;;;;13.43;6.30;;;;;;;-1.95;81.87;99363.25;4921064;29;20141;-77
2023/12/02 00:17:22;;;;;;;14.18;7.35;;;;;;;-1.94;82.00;99357.25;4910477;29;20115;-80
2023/12/02 00:19:49;;;;;;;16.05;7.22;;;;;;;-1.90;82.57;99359.03;4929321;29;20048;-79
2023/12/02 00:22:16;;;;;;;15.48;7.32;;;;;;;-1.96;82.45;99358.94;4923961;29;20477;-79
2023/12/02 00:24:43;;;;;;;14.50;7.32;;;;;;;-1.97;82.45;99362.31;4909453;29;20044;-80
2023/12/02 00:27:09;;;;;;;13.25;6.88;;;;;;;-1.97;82.46;99365.78;4900579;29;20505;-79
2023/12/02 00:29:36;;;;;;;13.77;7.25;;;;;;;-2.02;82.11;99369.13;4919065;29;20052;-80
2023/12/02 00:32:03;;;;;;;14.65;7.03;;;;;;;-2.06;82.30;99373.31;4908821;29;20054;-80
2023/12/02 00:34:30;;;;;;;13.10;6.95;;;;;;;-2.08;82.26;99369.00;4927374;29;20134;-79
2023/12/02 00:36:57;;;;;;;15.93;6.32;;;;;;;-2.16;82.28;99364.59;4935869;29;20043;-81
2023/12/02 00:39:23;;;;;;;14.95;6.60;;;;;;;-2.16;82.06;99367.16;4931348;29;20058;-80
2023/12/02 00:41:50;;;;;;;13.68;6.30;;;;;;;-2.19;81.80;99367.06;4915553;29;20104;-78
2023/12/02 00:44:17;;;;;;;13.07;6.63;;;;;;;-2.19;81.94;99361.94;4913836;29;20151;-80
2023/12/02 00:46:44;;;;;;;12.98;6.25;;;;;;;-2.21;82.46;99367.91;4927711;29;20051;-81
2023/12/02 00:49:10;;;;;;;14.80;6.40;;;;;;;-2.27;81.66;99358.38;4930841;29;20047;-79
2023/12/02 00:51:38;;;;;;;12.25;6.22;;;;;;;-2.28;82.13;99361.75;4910927;29;20142;-80
2023/12/02 00:54:04;;;;;;;15.20;7.07;;;;;;;-2.19;82.84;99361.94;4901119;29;20055;-79
2023/12/02 00:56:32;;;;;;;15.65;7.35;;;;;;;-2.22;82.88;99367.00;4929805;29;20533;-80
2023/12/02 00:58:59;;;;;;;13.00;7.05;;;;;;;-2.22;82.73;99372.16;4925201;29;20055;-79
2023/12/02 01:01:27;;;;;;;14.50;6.13;;;;;;;-2.23;82.81;99367.88;4926729;29;20051;-79
2023/12/02 01:03:54;;;;;;;12.93;7.05;;;;;;;-2.33;82.48;99373.63;4908323;29;20048;-80
2023/12/02 01:06:21;;;;;;;13.20;7.10;;;;;;;-2.26;82.66;99383.22;4924305;29;20064;-79
2023/12/02 01:08:48;;;;;;;13.65;6.57;;;;;;;-2.29;81.95;99385.72;4921260;29;20130;-80
2023/12/02 01:11:15;;;;;;;12.10;5.75;;;;;;;-2.34;82.17;99382.22;4923111;29;20055;-79
2023/12/02 01:13:41;;;;;;;12.20;6.47;;;;;;;-2.39;81.98;99386.38;4919270;29;20390;-79
2023/12/02 01:16:09;;;;;;;11.70;5.75;;;;;;;-2.40;81.63;99384.63;4920916;29;20063;-79
2023/12/02 01:18:35;;;;;;;11.30;5.57;;;;;;;-2.37;81.65;99392.44;4928387;29;20058;-79
2023/12/02 01:21:03;;;;;;;12.63;5.88;;;;;;;-2.40;81.70;99387.19;4916922;29;20086;-79
2023/12/02 01:23:30;;;;;;;15.27;6.15;;;;;;;-2.42;81.59;99391.47;4911121;29;20083;-79
2023/12/02 01:25:57;;;;;;;12.70;6.43;;;;;;;-2.36;82.26;99394.16;4909794;29;20052;-78
2023/12/02 01:28:24;;;;;;;14.15;6.55;;;;;;;-2.48;81.74;99390.50;4923483;29;20112;-79
2023/12/02 01:30:51;;;;;;;12.95;6.25;;;;;;;-2.52;81.58;99390.38;4897030;29;20202;-79
2023/12/02 01:33:18;;;;;;;12.77;6.43;;;;;;;-2.43;81.96;99397.41;4920019;29;20071;-79
2023/12/02 01:35:45;;;;;;;11.93;6.28;;;;;;;-2.48;81.95;99405.03;4931778;29;20134;-79
2023/12/02 01:38:12;;;;;;;11.40;5.72;;;;;;;-2.47;82.41;99405.06;4901319;29;20052;-80
2023/12/02 01:40:39;;;;;;;12.20;6.60;;;;;;;-2.43;82.51;99412.84;4934233;28;20074;-79
2023/12/02 01:43:05;;;;;;;10.52;5.68;;;;;;;-2.49;82.29;99418.72;4929470;29;20051;-79
2023/12/02 01:45:32;;;;;;;14.57;6.00;;;;;;;-2.55;82.21;99416.03;4892633;29;20087;-79
2023/12/02 01:48:00;;;;;;;13.38;7.72;;;;;;;-2.52;82.57;99429.81;4910128;29;20060;-79
2023/12/02 01:50:28;;;;;;;10.07;5.07;;;;;;;-2.46;82.41;99439.38;4913869;29;20051;-78
2023/12/02 01:52:55;;;;;;;11.88;5.75;;;;;;;-2.56;82.27;99422.88;4917974;29;20067;-77
2023/12/02 01:55:22;;;;;;;10.95;5.53;;;;;;;-2.58;82.09;99429.66;4891184;29;20048;-79
2023/12/02 01:57:49;;;;;;;11.15;5.45;;;;;;;-2.60;81.51;99431.34;4903828;29;20067;-80
2023/12/02 02:00:16;;;;;;;11.38;5.22;;;;;;;-2.62;82.16;99433.03;4900850;29;20225;-79
2023/12/02 02:02:43;;;;;;;10.80;5.95;;;;;;;-2.61;81.92;99432.16;4938791;29;20390;-79
2023/12/02 02:05:10;;;;;;;10.68;4.85;;;;;;;-2.65;81.88;99432.94;4930728;29;20079;-78
2023/12/02 02:07:37;;;;;;;11.88;5.20;;;;;;;-2.63;82.10;99431.28;4919833;29;20437;-80
2023/12/02 02:10:04;;;;;;;9.38;4.60;;;;;;;-2.66;81.52;99439.78;4904342;29;20048;-80
2023/12/02 02:12:31;;;;;;;9.48;4.60;;;;;;;-2.70;81.52;99437.97;4906843;29;20521;-79
2023/12/02 02:14:58;;;;;;;9.55;5.05;;;;;;;-2.63;81.47;99441.56;4930610;29;20087;-79
2023/12/02 02:17:24;;;;;;;9.82;5.10;;;;;;;-2.66;80.88;99442.34;4931915;29;20114;-80
2023/12/02 02:19:51;;;;;;;8.25;4.75;;;;;;;-2.63;80.96;99439.00;4908882;29;20057;-80
2023/12/02 02:22:18;;;;;;;8.63;4.32;;;;;;;-2.64;80.97;99444.94;4926898;29;20083;-81
2023/12/02 02:24:45;;;;;;;9.50;4.57;;;;;;;-2.66;80.45;99442.34;4915029;29;20055;-80
2023/12/02 02:27:11;;;;;;;7.50;4.47;;;;;;;-2.65;80.41;99448.34;4902215;29;20103;-80
2023/12/02 02:29:38;;;;;;;9.02;4.68;;;;;;;-2.64;80.88;99444.94;4925721;29;20055;-80
2023/12/02 02:32:05;;;;;;;8.77;4.65;;;;;;;-2.65;80.93;99443.19;4924871;29;20051;-79
2023/12/02 02:34:32;;;;;;;7.93;4.40;;;;;;;-2.62;80.59;99441.59;4925935;29;20071;-78
2023/12/02 02:36:59;;;;;;;8.20;4.13;;;;;;;-2.71;79.51;99443.97;4929412;29;20044;-80
2023/12/02 02:39:26;;;;;;;8.43;5.00;;;;;;;-2.70;79.27;99450.81;4928734;29;20055;-80
2023/12/02 02:41:54;;;;;;;8.65;4.90;;;;;;;-2.68;79.39;99449.16;4943721;29;20057;-80
2023/12/02 02:44:21;;;;;;;7.93;4.55;;;;;;;-2.68;79.30;99454.31;4927590;29;20055;-81
2023/12/02 02:46:48;;;;;;;9.23;4.47;;;;;;;-2.67;79.33;99456.00;4935089;29;20059;-80
2023/12/02 02:49:15;;;;;;;8.68;4.00;;;;;;;-2.73;79.03;99450.75;4925827;29;20051;-80
2023/12/02 02:51:42;;;;;;;8.18;4.13;;;;;;;-2.76;79.34;99457.53;4926741;29;20138;-80
2023/12/02 02:54:08;;;;;;;7.72;4.25;;;;;;;-2.68;79.46;99458.56;4915018;29;20072;-79
2023/12/02 02:56:35;;;;;;;9.23;4.65;;;;;;;-2.66;79.75;99467.19;4929002;29;20051;-81
2023/12/02 02:59:03;;;;;;;8.40;4.25;;;;;;;-2.73;79.00;99466.16;4903002;29;20048;-80
2023/12/02 03:01:29;;;;;;;8.52;4.75;;;;;;;-2.65;79.52;99468.91;4926888;29;20051;-81
2023/12/02 03:03:56;;;;;;;9.45;4.55;;;;;;;-2.73;79.56;99468.72;4930630;29;20052;-80
2023/12/02 03:06:24;;;;;;;8.45;5.05;;;;;;;-2.73;79.72;99467.88;4933049;29;20105;-80
2023/12/02 03:08:51;;;;;;;10.23;4.80;;;;;;;-2.70;79.86;99465.38;4931964;29;20074;-79
2023/12/02 03:11:18;;;;;;;9.25;4.38;;;;;;;-2.73;79.50;99461.03;4931564;29;20055;-80
2023/12/02 03:13:45;;;;;;;7.85;4.25;;;;;;;-2.78;79.11;99456.63;4910321;29;20044;-80
2023/12/02 03:16:12;;;;;;;7.38;4.63;;;;;;;-2.80;79.27;99465.13;4923806;29;20550;-81
2023/12/02 03:18:39;;;;;;;10.13;5.07;;;;;;;-2.77;79.10;99466.06;4927713;29;20097;-80
2023/12/02 03:21:06;;;;;;;10.05;4.97;;;;;;;-2.80;79.15;99470.28;4900095;29;20064;-80
2023/12/02 03:23:33;;;;;;;8.77;4.57;;;;;;;-2.76;79.49;99465.25;4935672;29;20074;-80
2023/12/02 03:26:00;;;;;;;10.80;4.90;;;;;;;-2.85;78.90;99461.63;4915735;29;20054;-80
2023/12/02 03:28:27;;;;;;;7.20;4.03;;;;;;;-2.90;78.70;99460.63;4924104;29;20054;-80
2023/12/02 03:30:53;;;;;;;10.10;4.80;;;;;;;-2.86;79.77;99457.31;4910678;29;20056;-79
2023/12/02 03:33:20;;;;;;;8.93;5.10;;;;;;;-2.86;79.20;99453.88;4935645;29;20058;-81
2023/12/02 03:35:47;;;;;;;9.20;5.13;;;;;;;-2.86;79.36;99464.16;4918202;29;20078;-80
2023/12/02 03:38:14;;;;;;;9.43;4.60;;;;;;;-2.84;79.25;99465.03;4914680;29;20052;-79
2023/12/02 03:40:40;;;;;;;9.85;5.60;;;;;;;-2.80;79.62;99464.28;4921196;29;20067;-81
2023/12/02 03:43:07;;;;;;;9.27;5.15;;;;;;;-2.83;79.67;99469.34;4931962;29;20043;-80
2023/12/02 03:45:34;;;;;;;8.93;5.13;;;;;;;-2.86;79.79;99465.00;4929794;29;20058;-79
2023/12/02 03:48:01;;;;;;;10.27;4.78;;;;;;;-2.85;79.46;99469.31;4923268;29;20058;-80
2023/12/02 03:50:28;;;;;;;9.10;4.72;;;;;;;-2.93;78.92;99470.81;4937784;29;20055;-79
2023/12/02 03:52:54;;;;;;;8.48;4.72;;;;;;;-2.87;79.23;99475.25;4932865;29;20047;-80
2023/12/02 03:55:21;;;;;;;10.85;4.95;;;;;;;-2.89;79.25;99469.22;4923760;29;20066;-80
2023/12/02 03:57:48;;;;;;;9.10;4.53;;;;;;;-2.89;79.03;99477.78;4936222;29;20118;-79
2023/12/02 04:00:19;;;;;;;8.35;4.57;;;;;;;-2.87;79.58;99472.69;4928900;29;20052;-80
2023/12/02 04:02:46;;;;;;;10.27;5.28;;;;;;;-2.85;79.68;99487.28;4922474;29;20059;-80
2023/12/02 04:05:13;;;;;;;10.13;4.53;;;;;;;-2.93;78.97;99482.81;4903342;29;20059;-79
2023/12/02 04:07:41;;;;;;;10.10;4.80;;;;;;;-2.97;78.37;99480.19;4931196;29;20141;-81
2023/12/02 04:10:08;;;;;;;10.38;4.85;;;;;;;-2.99;78.38;99480.97;4917004;29;20063;-80
2023/12/02 04:12:36;;;;;;;9.88;5.68;;;;;;;-3.02;77.56;99486.03;4925252;29;20143;-80
2023/12/02 04:15:04;;;;;;;10.18;5.50;;;;;;;-3.02;78.05;99480.88;4923082;29;20055;-80
2023/12/02 04:17:31;;;;;;;10.95;5.45;;;;;;;-3.04;78.17;99488.56;4923823;29;20043;-80
2023/12/02 04:19:58;;;;;;;9.30;4.95;;;;;;;-3.04;77.70;99493.69;4925530;29;20043;-81
2023/12/02 04:22:25;;;;;;;11.68;5.32;;;;;;;-3.05;78.04;99493.66;4931216;29;20051;-80
2023/12/02 04:24:51;;;;;;;9.55;4.55;;;;;;;-3.04;77.83;99500.50;4928843;29;20055;-80
2023/12/02 04:27:18;;;;;;;9.93;4.97;;;;;;;-3.08;77.62;99502.13;4928679;29;20051;-80
2023/12/02 04:29:45;;;;;;;10.05;4.43;;;;;;;-3.06;77.67;99507.31;4934443;29;20047;-79
2023/12/02 04:32:11;;;;;;;9.50;5.00;;;;;;;-3.07;77.39;99510.69;4918588;29;20086;-80
2023/12/02 04:34:38;;;;;;;9.18;4.80;;;;;;;-3.06;77.60;99517.56;4914372;29;20102;-80
2023/12/02 04:37:05;;;;;;;10.23;5.50;;;;;;;-3.03;77.72;99523.63;4924868;29;20055;-80
2023/12/02 04:39:33;;;;;;;10.10;4.57;;;;;;;-3.02;78.08;99535.66;4924263;29;20054;-80
2023/12/02 04:42:00;;;;;;;9.48;4.70;;;;;;;-3.06;77.76;99538.97;4889946;29;20059;-79
2023/12/02 04:44:27;;;;;;;10.57;5.13;;;;;;;-3.04;77.63;99537.34;4913704;29;20082;-80
2023/12/02 04:46:53;;;;;;;9.50;4.20;;;;;;;-3.05;77.35;99545.00;4935407;29;20117;-80
2023/12/02 04:49:20;;;;;;;10.85;5.00;;;;;;;-3.04;77.37;99546.72;4914633;29;21501;-79
2023/12/02 04:51:47;;;;;;;8.43;4.40;;;;;;;-3.03;77.87;99548.47;4907487;29;20043;-77
2023/12/02 04:54:17;;;;;;;8.90;4.10;;;;;;;-3.02;77.94;99555.34;4924031;29;20070;-80
2023/12/02 04:56:44;;;;;;;9.88;4.95;;;;;;;-3.04;77.97;99556.97;4930009;29;20150;-80
2023/12/02 04:59:10;;;;;;;7.78;4.03;;;;;;;-3.05;77.54;99562.97;4903912;29;20064;-78
2023/12/02 05:01:38;;;;;;;7.88;4.35;;;;;;;-3.04;77.30;99572.38;4904431;29;20050;-80
2023/12/02 05:04:05;;;;;;;9.75;4.50;;;;;;;-3.09;77.08;99568.84;4923952;29;20114;-79
2023/12/02 05:06:32;;;;;;;7.90;4.35;;;;;;;-3.04;77.50;99574.94;4907972;29;20048;-80
2023/12/02 05:08:59;;;;;;;8.68;4.53;;;;;;;-3.01;78.09;99583.63;4931080;29;20051;-78
2023/12/02 05:11:26;;;;;;;8.88;4.88;;;;;;;-3.04;77.89;99580.09;4933084;29;20205;-80
2023/12/02 05:13:53;;;;;;;7.65;4.20;;;;;;;-3.10;77.56;99591.09;4924047;29;20424;-80
2023/12/02 05:16:19;;;;;;;7.15;4.03;;;;;;;-3.07;77.57;99595.41;4922437;29;20059;-80
2023/12/02 05:18:46;;;;;;;7.57;3.85;;;;;;;-3.09;76.97;99604.78;4939691;28;20050;-80
2023/12/02 05:21:13;;;;;;;7.65;4.20;;;;;;;-3.11;77.15;99612.44;4900821;29;20170;-80
2023/12/02 05:23:40;;;;;;;9.50;5.10;;;;;;;-3.10;77.11;99615.88;4924805;29;20074;-79
2023/12/02 05:26:08;;;;;;;7.38;4.13;;;;;;;-3.06;77.42;99622.84;4923792;29;20054;-80
2023/12/02 05:28:35;;;;;;;8.18;5.07;;;;;;;-3.11;76.86;99621.81;4931266;29;20122;-80
2023/12/02 05:31:02;;;;;;;8.57;4.40;;;;;;;-3.12;77.12;99620.09;4934222;28;20062;-80
2023/12/02 05:33:29;;;;;;;6.85;3.65;;;;;;;-3.09;77.23;99630.44;4939729;29;20044;-80
2023/12/02 05:35:56;;;;;;;7.82;3.97;;;;;;;-3.05;77.22;99633.13;4917413;29;20050;-80
2023/12/02 05:38:23;;;;;;;9.40;4.50;;;;;;;-3.10;76.71;99637.28;4932664;29;20051;-80
2023/12/02 05:40:50;;;;;;;8.90;4.78;;;;;;;-3.12;76.96;99631.22;4936099;28;20059;-79
2023/12/02 05:43:17;;;;;;;8.20;4.20;;;;;;;-3.10;77.40;99633.84;4916390;29;20055;-79
2023/12/02 05:45:44;;;;;;;7.55;4.03;;;;;;;-3.10;77.04;99637.28;4917225;29;20047;-80
2023/12/02 05:48:10;;;;;;;7.80;3.92;;;;;;;-3.09;77.59;99644.16;4924102;29;20043;-80
2023/12/02 05:50:37;;;;;;;6.10;3.75;;;;;;;-3.08;77.52;99648.47;4936923;29;20059;-79
2023/12/02 05:53:04;;;;;;;7.63;4.40;;;;;;;-3.07;77.37;99649.31;4931620;29;20054;-80
2023/12/02 05:55:31;;;;;;;8.02;4.45;;;;;;;-3.06;77.61;99661.34;4934859;29;20069;-79
2023/12/02 05:57:58;;;;;;;7.75;3.88;;;;;;;-3.04;77.63;99655.44;4939485;29;20060;-80
2023/12/02 06:00:25;;;;;;;8.18;3.95;;;;;;;-3.05;77.42;99655.38;4927106;29;20047;-79
2023/12/02 06:02:52;;;;;;;7.90;4.20;;;;;;;-3.09;76.95;99653.56;4932820;29;20449;-79
2023/12/02 06:05:18;;;;;;;7.00;3.97;;;;;;;-3.06;77.21;99651.06;4913006;28;20051;-80
2023/12/02 06:07:45;;;;;;;7.65;4.85;;;;;;;-3.03;77.37;99651.16;4937867;29;20051;-80
2023/12/02 06:10:12;;;;;;;8.70;3.95;;;;;;;-3.02;78.14;99647.75;4915172;29;20058;-81
2023/12/02 06:12:39;;;;;;;7.85;4.43;;;;;;;-3.04;77.12;99655.44;4930855;29;20052;-80
2023/12/02 06:15:09;;;;;;;6.60;3.78;;;;;;;-3.04;77.54;99662.22;4930033;29;20108;-79
2023/12/02 06:17:36;;;;;;;6.95;3.78;;;;;;;-3.05;77.07;99674.22;4928561;28;20115;-79
2023/12/02 06:20:06;;;;;;;8.15;4.00;;;;;;;-3.02;77.05;99670.88;4912362;29;20078;-79
2023/12/02 06:22:33;;;;;;;6.75;3.95;;;;;;;-3.03;77.31;99676.81;4931692;29;20056;-81
2023/12/02 06:25:01;;;;;;;6.70;3.80;;;;;;;-3.02;77.26;99676.88;4928017;29;20051;-79
2023/12/02 06:27:28;;;;;;;6.88;3.95;;;;;;;-2.98;77.50;99682.97;4919746;28;20138;-80
2023/12/02 06:29:54;;;;;;;6.90;3.72;;;;;;;-3.04;77.43;99682.78;4926521;29;20059;-79
2023/12/02 06:32:21;;;;;;;6.28;3.60;;;;;;;-3.02;77.01;99693.97;4924537;29;20060;-80
2023/12/02 06:34:49;;;;;;;6.57;3.90;;;;;;;-3.02;76.73;99699.09;4911863;29;20063;-80
2023/12/02 06:37:16;;;;;;;7.47;3.95;;;;;;;-3.01;77.33;99703.44;4923473;29;20143;-80
2023/12/02 06:39:42;;;;;;;7.47;3.88;;;;;;;-3.02;76.78;99707.66;4929482;29;20055;-81
2023/12/02 06:42:09;;;;;;;6.68;4.00;;;;;;;-3.02;76.45;99704.25;4906625;29;20098;-80
2023/12/02 06:44:36;;;;;;;8.13;4.18;;;;;;;-3.01;76.52;99708.56;4931352;29;20131;-80
2023/12/02 06:47:03;;;;;;;6.47;3.70;;;;;;;-2.99;76.94;99709.47;4913654;29;20058;-80
2023/12/02 06:49:30;;;;;;;5.90;3.60;;;;;;;-3.03;76.26;99712.75;4929797;29;20138;-79
2023/12/02 06:51:56;;;;;;;6.28;3.55;;;;;;;-3.04;76.35;99717.03;4931415;29;20047;-79
2023/12/02 06:54:23;;;;;;;8.02;3.95;;;;;;;-3.03;76.71;99713.63;4925812;29;20046;-80
2023/12/02 06:56:50;;;;;;;7.53;4.20;;;;;;;-3.01;76.65;99718.84;4937912;29;20051;-80
2023/12/02 06:59:17;;;;;;;6.47;3.88;;;;;;;-3.02;76.86;99720.50;4920602;29;20055;-79
2023/12/02 07:01:44;;;;;;;10.43;5.28;;;;;;;-3.01;77.20;99716.25;4930319;29;20492;-80
2023/12/02 07:04:12;;;;;;;7.93;4.00;;;;;;;-3.03;77.00;99721.31;4911020;29;20174;-80
2023/12/02 07:06:40;;;;;;;7.95;3.88;;;;;;;-3.04;76.78;99721.28;4928265;29;20075;-80
2023/12/02 07:09:08;;;;;;;7.03;3.92;;;;;;;-3.02;77.19;99729.91;4926796;29;20056;-79
2023/12/02 07:11:35;;;;;;;5.90;3.40;;;;;;;-3.02;77.51;99730.78;4937075;29;20082;-79
2023/12/02 07:14:03;;;;;;;7.35;3.95;;;;;;;-3.05;77.14;99725.56;4903572;29;20085;-79
2023/12/02 07:16:30;;;;;;;6.60;4.18;;;;;;;-3.02;77.43;99724.78;4930532;29;20492;-79
2023/12/02 07:18:57;;;;;;;6.70;3.70;;;;;;;-3.01;77.38;99741.94;4917566;29;20051;-79
2023/12/02 07:21:24;;;;;;;7.30;4.22;;;;;;;-3.01;77.24;99741.94;4929282;29;20050;-80
2023/12/02 07:23:51;;;;;;;8.88;3.88;;;;;;;-3.01;77.50;99750.50;4913412;29;20058;-79
2023/12/02 07:26:17;;;;;;;8.48;3.90;;;;;;;-3.01;77.52;99754.78;4922342;29;20052;-80
2023/12/02 07:28:44;;;;;;;5.85;3.72;;;;;;;-2.99;77.70;99758.25;4937353;29;20052;-80
2023/12/02 07:31:14;;;;;;;7.20;4.30;;;;;;;-3.03;77.36;99759.84;4933237;29;20059;-81
2023/12/02 07:33:41;;;;;;;6.90;4.00;;;;;;;-3.01;77.51;99770.19;4922817;29;20051;-80
2023/12/02 07:36:09;;;;;;;6.53;3.95;;;;;;;-3.00;77.42;99769.31;4921822;29;20457;-80
2023/12/02 07:38:36;;;;;;;8.05;4.13;;;;;;;-2.99;76.94;99771.06;4928493;29;20047;-79
2023/12/02 07:41:03;;;;;;;6.20;4.05;;;;;;;-2.98;77.40;99776.25;4929118;29;20047;-78
2023/12/02 07:43:29;;;;;;;6.18;3.63;;;;;;;-2.95;77.26;99780.63;4915301;29;20208;-79
2023/12/02 07:45:57;;;;;;;6.70;4.15;;;;;;;-2.93;77.44;99780.66;4927656;29;20560;-80
2023/12/02 07:48:24;;;;;;;7.30;4.10;;;;;;;-2.94;77.26;99779.81;4903049;29;20134;-80
2023/12/02 07:50:51;;;;;;;8.07;4.45;;;;;;;-2.92;77.01;99788.41;4931947;29;20047;-80
2023/12/02 07:53:18;;;;;;;7.68;4.05;;;;;;;-2.93;76.94;99793.50;4929692;29;20408;-79
2023/12/02 07:55:45;;;;;;;7.53;4.00;;;;;;;-2.88;77.56;99790.25;4942669;29;20075;-80
2023/12/02 07:58:12;;;;;;;5.88;4.03;;;;;;;-2.91;77.18;99796.97;4928223;29;20063;-80
2023/12/02 08:00:39;;;;;;;6.80;3.92;;;;;;;-2.93;76.79;99799.50;4924315;29;20056;-80
2023/12/02 08:03:06;;;;;;;10.45;4.18;;;;;;;-2.94;76.71;99805.47;4929000;29;20059;-79
2023/12/02 08:05:33;;;;;;;7.28;4.13;;;;;;;-2.93;76.67;99807.19;4920868;29;20062;-80
2023/12/02 08:08:03;;;;;;;7.63;4.10;;;;;;;-2.90;77.14;99807.28;4909327;29;20059;-80
2023/12/02 08:10:30;;;;;;;7.55;4.43;;;;;;;-2.94;76.70;99813.19;4892992;29;20043;-79
2023/12/02 08:12:56;;;;;;;6.60;4.55;;;;;;;-2.95;76.38;99819.13;4931500;29;20068;-78
2023/12/02 08:15:23;;;;;;;6.65;4.00;;;;;;;-2.91;76.75;99820.06;4923867;29;20047;-79
2023/12/02 08:17:50;;;;;;;5.88;3.33;;;;;;;-2.93;76.56;99822.59;4929423;29;20054;-80
2023/12/02 08:20:17;;;;;;;5.97;3.83;;;;;;;-2.90;76.64;99822.69;4908174;29;20150;-79
2023/12/02 08:22:43;;;;;;;4.32;3.13;;;;;;;-2.89;76.73;99828.72;4935148;29;20058;-80
2023/12/02 08:25:11;;;;;;;6.43;3.80;;;;;;;-2.90;77.01;99837.25;4922534;29;20051;-80
2023/12/02 08:27:37;;;;;;;8.52;3.80;;;;;;;-2.91;76.50;99833.81;4926221;29;20131;-80
2023/12/02 08:30:07;;;;;;;5.53;3.50;;;;;;;-2.92;76.02;99838.91;4916094;29;20051;-79
2023/12/02 08:32:34;;;;;;;4.78;3.08;;;;;;;-2.90;76.57;99843.22;4932532;29;20137;-79
2023/12/02 08:35:00;;;;;;;4.95;2.85;;;;;;;-2.88;75.77;99844.16;4923256;29;20406;-79
2023/12/02 08:37:27;;;;;;;4.43;3.13;;;;;;;-2.89;75.96;99847.56;4930494;29;20048;-79
2023/12/02 08:39:54;;;;;;;5.10;3.22;;;;;;;-2.90;75.97;99847.50;4924410;29;20134;-80
2023/12/02 08:42:21;;;;;;;4.72;2.63;;;;;;;-2.90;75.59;99858.63;4918209;29;21397;-79
2023/12/02 08:44:47;;;;;;;5.30;3.10;;;;;;;-2.89;75.72;99860.41;4931029;29;20078;-79
2023/12/02 08:47:14;;;;;;;5.55;3.72;;;;;;;-2.88;75.88;99862.16;4928137;29;20055;-79
2023/12/02 08:49:41;;;;;;;3.72;2.80;;;;;;;-2.90;76.03;99866.34;4911584;29;20054;-79
2023/12/02 08:52:08;;;;;;;4.15;3.00;;;;;;;-2.92;75.50;99873.16;4927857;29;20051;-80
2023/12/02 08:54:35;;;;;;;4.55;3.00;;;;;;;-2.89;75.49;99880.94;4934309;29;20508;-80
2023/12/02 08:57:02;;;;;;;4.55;3.03;;;;;;;-2.83;76.04;99881.13;4932365;29;20055;-79
2023/12/02 08:59:29;;;;;;;4.80;3.40;;;;;;;-2.84;75.32;99894.81;4938413;29;20062;-79
2023/12/02 09:01:56;;;;;;;6.18;3.75;;;;;;;-2.72;75.64;99901.09;4917063;29;20044;-78
2023/12/02 09:04:23;;;;;;;5.05;3.22;;;;;;;-2.72;75.87;99901.09;4919569;29;20102;-81
2023/12/02 09:06:50;;;;;;;4.38;2.65;;;;;;;-2.88;74.36;99908.38;4924635;29;20051;-80
2023/12/02 09:09:17;;;;;;;4.28;3.05;;;;;;;-2.87;74.53;99910.13;4927194;29;20049;-80
2023/12/02 09:11:44;;;;;;;4.38;3.10;;;;;;;-2.88;74.57;99918.66;4914522;29;20047;-80
2023/12/02 09:14:11;;;;;;;4.25;2.78;;;;;;;-2.88;74.49;99918.66;4923539;29;20062;-79
2023/12/02 09:16:46;;;;;;;4.82;2.80;;;;;;;-2.89;74.30;99921.16;4930987;29;20047;-80
2023/12/02 09:19:37;;;;;;;4.15;2.92;;;;;;;-2.86;74.33;99924.69;4923625;29;20058;-79
2023/12/02 09:22:05;;;;;;;5.03;3.05;;;;;;;-2.83;74.34;99932.47;4924972;29;20051;-80
2023/12/02 09:24:34;;;;;;;5.57;3.22;;;;;;;-2.75;74.58;99939.56;4912874;29;20121;-79
2023/12/02 09:27:05;;;;;;;4.80;2.80;;;;;;;-2.78;74.18;99940.34;4917623;29;20044;-81
2023/12/02 09:29:41;;;;;;;4.32;2.72;;;;;;;-2.70;74.96;99950.84;4905840;29;20047;-82
2023/12/02 09:32:17;;;;;;;4.32;2.90;;;;;;;-2.77;73.96;99956.63;4908578;29;20051;-81
2023/12/02 09:34:43;;;;;;;4.20;2.65;;;;;;;-2.83;74.10;99955.59;4923670;29;20048;-79
2023/12/02 09:37:48;;;;;;;4.75;3.03;;;;;;;-2.82;74.42;99959.91;4933998;29;20117;-79
2023/12/02 09:40:21;;;;;;;5.60;3.30;;;;;;;-2.83;73.98;99963.31;4908957;29;20107;-79
2023/12/02 09:42:53;;;;;;;6.50;3.40;;;;;;;-2.77;74.11;99969.47;4924866;29;20062;-79
2023/12/02 09:45:22;;;;;;;3.85;2.47;;;;;;;-2.73;73.84;99963.59;4929122;29;20054;-79
2023/12/02 09:47:57;;;;;;;4.13;2.33;;;;;;;-2.76;73.36;99966.09;4900137;29;20055;-81
2023/12/02 09:50:28;;;;;;;3.92;2.72;;;;;;;-2.71;74.20;99969.66;4902301;29;20501;-80
2023/12/02 09:52:55;;;;;;;5.13;2.85;;;;;;;-2.76;73.19;99971.22;4935214;29;20055;-79
2023/12/02 09:55:30;;;;;;;5.25;2.85;;;;;;;-2.69;73.35;99968.88;4925950;29;20059;-79
2023/12/02 09:58:16;;;;;;;4.63;2.38;;;;;;;-2.75;72.88;99972.94;4902265;29;20576;-79
2023/12/02 10:01:02;;;;;;;5.28;2.70;;;;;;;-2.67;72.96;99981.78;4924941;29;20214;-79
2023/12/02 10:03:32;;;;;;;4.55;2.78;;;;;;;-2.77;71.97;99970.31;4929928;29;20054;-80
2023/12/02 10:06:17;;;;;;;5.80;3.35;;;;;;;-2.76;72.38;99978.94;4926760;29;20059;-79
2023/12/02 10:09:08;;;;;;;8.50;3.83;;;;;;;-2.74;72.06;99979.84;4933656;29;20050;-79
2023/12/02 10:11:43;;;;;;;3.70;2.40;;;;;;;-2.81;71.88;99987.34;4894558;29;20402;-80
2023/12/02 10:14:11;;;;;;;4.68;2.63;;;;;;;-2.69;72.79;99991.13;4910847;29;20055;-80
2023/12/02 10:16:41;;;;;;;4.70;3.20;;;;;;;-2.66;73.26;99983.53;4910407;29;20056;-80
2023/12/02 10:19:12;;;;;;;4.57;2.72;;;;;;;-2.70;72.89;99985.09;4920149;29;20123;-80
2023/12/02 10:21:42;;;;;;;4.90;2.67;;;;;;;-2.76;73.07;99987.50;4934015;29;20486;-80
2023/12/02 10:24:11;;;;;;;4.32;2.70;;;;;;;-2.71;73.41;99990.19;4925922;29;20417;-79
2023/12/02 10:26:42;;;;;;;4.53;2.83;;;;;;;-2.71;73.37;99990.19;4918353;29;20050;-80
2023/12/02 10:29:25;;;;;;;4.57;2.80;;;;;;;-2.70;73.49;99997.09;4886304;29;20047;-80
2023/12/02 10:32:04;;;;;;;4.90;2.75;;;;;;;-2.65;73.08;99998.09;4919388;29;20052;-81
2023/12/02 10:34:38;;;;;;;4.07;3.00;;;;;;;-2.84;72.29;99992.41;4927881;29;20063;-80
2023/12/02 10:37:05;;;;;;;4.03;2.90;;;;;;;-2.73;72.09;99994.44;4921785;29;20057;-80
2023/12/02 10:39:43;;;;;;;5.22;2.95;;;;;;;-2.87;71.66;99993.97;4889508;29;20051;-80
2023/12/02 10:42:21;;;;;;;3.88;3.10;;;;;;;-2.77;72.55;99992.59;4929978;29;20055;-81
2023/12/02 10:44:54;;;;;;;5.60;3.30;;;;;;;-2.84;72.60;99992.41;4919227;29;20079;-80
2023/12/02 10:47:21;;;;;;;4.88;2.97;;;;;;;-2.76;72.55;99994.34;4910259;29;20143;-80
2023/12/02 10:49:48;;;;;;;4.05;2.60;;;;;;;-2.81;72.19;99996.72;4927564;29;20048;-81
2023/12/02 10:52:16;;;;;;;5.25;3.42;;;;;;;-2.68;72.56;100005.69;4919130;29;20060;-80
2023/12/02 10:54:49;;;;;;;4.47;2.35;;;;;;;-2.77;71.61;100001.16;4918194;29;20047;-80
2023/12/02 10:57:18;;;;;;;3.63;2.40;;;;;;;-2.86;70.76;100004.31;4925071;29;20065;-80
2023/12/02 11:00:12;;;;;;;4.22;2.40;;;;;;;-2.81;70.66;100001.88;4911735;29;20189;-81
2023/12/02 11:03:00;;;;;;;4.38;2.60;;;;;;;-2.90;70.97;100001.59;4915456;29;20047;-81
2023/12/02 11:05:53;;;;;;;5.22;2.90;;;;;;;-2.84;71.07;100002.66;4911994;29;20058;-79
2023/12/02 11:08:23;;;;;;;4.32;3.40;;;;;;;-2.87;71.00;100002.56;4915800;29;20057;-79
2023/12/02 11:10:52;;;;;;;4.32;2.60;;;;;;;-2.88;70.82;100005.97;4915203;29;20531;-80
2023/12/02 11:13:20;;;;;;;3.38;2.20;;;;;;;-2.86;70.25;100017.13;4911715;29;20054;-80
2023/12/02 11:16:09;;;;;;;3.55;2.63;;;;;;;-2.91;70.53;100021.28;4923689;29;20055;-80
2023/12/02 11:18:48;;;;;;;4.50;3.13;;;;;;;-2.86;70.95;100022.28;4930884;29;20047;-78
2023/12/02 11:21:29;;;;;;;4.93;2.90;;;;;;;-2.87;70.24;100027.38;4921336;29;20067;-80
2023/12/02 11:24:03;;;;;;;6.35;2.92;;;;;;;-2.82;70.44;100039.53;4917064;29;20087;-79
2023/12/02 11:27:07;;;;;;;4.47;2.70;;;;;;;-2.93;70.13;100035.75;4923002;29;20047;-81
2023/12/02 11:29:47;;;;;;;3.38;2.33;;;;;;;-2.84;70.47;100043.75;4934302;29;20106;-80
2023/12/02 11:32:21;;;;;;;3.63;2.53;;;;;;;-2.85;70.43;100047.16;4925093;29;20056;-80
2023/12/02 11:35:09;;;;;;;3.42;2.60;;;;;;;-2.95;70.13;100054.47;4895358;29;20063;-79
2023/12/02 11:37:45;;;;;;;4.70;2.95;;;;;;;-2.88;70.94;100054.75;4924024;29;20056;-78